createdAt,value
2023-02-26T00:00:30.202Z,-18.10
2023-02-26T00:03:00.424Z,-18.10
2023-02-26T00:05:30.876Z,-18.10
2023-02-26T00:08:02.577Z,-18.10
2023-02-26T00:10:36.044Z,-18.10
2023-02-26T00:13:07.157Z,-18.00
2023-02-26T00:15:38.264Z,-18.00
2023-02-26T00:18:12.942Z,-18.00
2023-02-26T00:20:44.784Z,-17.80
2023-02-26T00:23:18.429Z,-17.80
2023-02-26T00:25:49.854Z,-17.80
2023-02-26T00:28:20.947Z,-17.80
2023-02-26T00:30:52.050Z,-17.80
2023-02-26T00:33:22.859Z,-17.90
2023-02-26T00:35:59.389Z,-17.90
2023-02-26T00:38:35.335Z,-17.90
2023-02-26T00:41:06.143Z,-17.90
2023-02-26T00:43:37.042Z,-18.00
2023-02-26T00:46:17.318Z,-18.10
2023-02-26T00:48:56.656Z,-18.20
2023-02-26T00:51:36.874Z,-18.30
2023-02-26T00:54:16.310Z,-18.40
2023-02-26T00:56:46.534Z,-18.40
2023-02-26T00:59:16.714Z,-18.40
2023-02-26T01:01:50.283Z,-18.40
2023-02-26T01:04:22.367Z,-18.40
2023-02-26T01:06:55.590Z,-18.50
2023-02-26T01:09:31.906Z,-18.50
2023-02-26T01:12:06.847Z,-18.50
2023-02-26T01:14:38.456Z,-18.40
2023-02-26T01:17:15.717Z,-18.50
2023-02-26T01:19:49.929Z,-18.60
2023-02-26T01:22:23.092Z,-18.50
2023-02-26T01:25:01.859Z,-18.50
2023-02-26T01:27:32.598Z,-18.50
2023-02-26T01:30:03.479Z,-18.60
2023-02-26T01:32:44.605Z,-18.50
2023-02-26T01:35:33.562Z,-18.50
2023-02-26T01:38:08.380Z,-18.60
2023-02-26T01:41:07.054Z,-18.70
2023-02-26T01:43:41.340Z,-18.70
2023-02-26T01:46:21.135Z,-18.70
2023-02-26T01:48:53.734Z,-18.70
2023-02-26T01:51:46.290Z,-18.80
2023-02-26T01:54:18.298Z,-18.90
2023-02-26T01:56:54.442Z,-18.90
2023-02-26T01:59:25.198Z,-18.90
2023-02-26T02:01:57.208Z,-18.90
2023-02-26T02:04:28.950Z,-19.00
2023-02-26T02:06:59.628Z,-19.10
2023-02-26T02:09:32.186Z,-19.20
2023-02-26T02:12:23.906Z,-19.30
2023-02-26T02:15:06.340Z,-19.40
2023-02-26T02:17:47.714Z,-19.50
2023-02-26T02:20:47.874Z,-19.50
2023-02-26T02:23:22.272Z,-19.60
2023-02-26T02:26:30.726Z,-19.60
2023-02-26T02:29:40.862Z,-19.70
2023-02-26T02:32:18.647Z,-19.80
2023-02-26T02:34:57.666Z,-19.90
2023-02-26T02:37:32.952Z,-19.90
2023-02-26T02:40:09.955Z,-19.90
2023-02-26T02:42:51.216Z,-19.90
2023-02-26T02:45:31.001Z,-19.90
2023-02-26T02:48:07.544Z,-20.00
2023-02-26T02:50:42.841Z,-20.00
2023-02-26T02:53:19.559Z,-20.00
2023-02-26T02:55:56.044Z,-20.00
2023-02-26T02:58:28.891Z,-20.00
2023-02-26T03:01:05.211Z,-20.00
2023-02-26T03:03:41.211Z,-19.90
2023-02-26T03:06:11.515Z,-20.00
2023-02-26T03:08:45.339Z,-20.00
2023-02-26T03:11:15.815Z,-20.00
2023-02-26T03:13:46.782Z,-20.10
2023-02-26T03:16:35.947Z,-20.10
2023-02-26T03:19:17.629Z,-20.10
2023-02-26T03:21:56.418Z,-20.00
2023-02-26T03:24:31.891Z,-20.00
2023-02-26T03:27:05.764Z,-19.90
2023-02-26T03:29:42.108Z,-19.70
2023-02-26T03:32:17.526Z,-19.50
2023-02-26T03:34:52.788Z,-19.10
2023-02-26T03:37:27.554Z,-18.80
2023-02-26T03:40:02.786Z,-18.50
2023-02-26T03:42:39.091Z,-18.20
2023-02-26T03:45:12.234Z,-17.90
2023-02-26T03:47:44.573Z,-17.60
2023-02-26T03:50:20.322Z,-17.30
2023-02-26T03:52:53.166Z,-17.10
2023-02-26T03:55:31.807Z,-17.00
2023-02-26T03:58:02.015Z,-16.90
2023-02-26T04:00:35.230Z,-16.70
2023-02-26T04:03:10.273Z,-16.60
2023-02-26T04:05:46.157Z,-16.50
2023-02-26T04:08:16.423Z,-16.50
2023-02-26T04:10:54.344Z,-16.40
2023-02-26T04:13:24.515Z,-16.40
2023-02-26T04:15:54.774Z,-16.30
2023-02-26T04:18:25.050Z,-16.30
2023-02-26T04:20:56.693Z,-16.20
2023-02-26T04:23:26.876Z,-16.20
2023-02-26T04:25:56.940Z,-16.20
2023-02-26T04:28:27.474Z,-16.20
2023-02-26T04:30:57.614Z,-16.20
2023-02-26T04:33:27.928Z,-16.20
2023-02-26T04:35:59.617Z,-16.20
2023-02-26T04:38:30.726Z,-16.20
2023-02-26T04:41:00.794Z,-16.20
2023-02-26T04:43:31.029Z,-16.20
2023-02-26T04:46:01.250Z,-16.10
2023-02-26T04:48:31.436Z,-16.10
2023-02-26T04:51:03.335Z,-16.10
2023-02-26T04:53:33.647Z,-16.00
2023-02-26T04:56:03.699Z,-16.00
2023-02-26T04:58:33.780Z,-15.90
2023-02-26T05:01:03.799Z,-15.90
2023-02-26T05:03:34.139Z,-15.90
2023-02-26T05:06:05.838Z,-15.80
2023-02-26T05:08:35.948Z,-15.80
2023-02-26T05:11:06.390Z,-15.80
2023-02-26T05:13:36.501Z,-15.70
2023-02-26T05:16:06.749Z,-15.70
2023-02-26T05:18:37.164Z,-15.70
2023-02-26T05:21:09.088Z,-15.70
2023-02-26T05:23:39.298Z,-15.60
2023-02-26T05:26:09.553Z,-15.60
2023-02-26T05:28:39.806Z,-15.60
2023-02-26T05:31:09.938Z,-15.60
2023-02-26T05:33:40.086Z,-15.60
2023-02-26T05:36:12.405Z,-15.50
2023-02-26T05:38:42.686Z,-15.50
2023-02-26T05:41:12.753Z,-15.50
2023-02-26T05:43:42.846Z,-15.50
2023-02-26T05:46:12.930Z,-15.40
2023-02-26T05:48:45.601Z,-15.40
2023-02-26T05:51:17.481Z,-15.40
2023-02-26T05:53:48.213Z,-15.30
2023-02-26T05:56:18.219Z,-15.30
2023-02-26T05:58:48.476Z,-15.20
2023-02-26T06:01:18.675Z,-15.20
2023-02-26T06:03:48.754Z,-15.20
2023-02-26T06:06:20.491Z,-15.20
2023-02-26T06:08:50.764Z,-15.20
2023-02-26T06:11:21.000Z,-15.10
2023-02-26T06:13:51.547Z,-15.10
2023-02-26T06:16:21.823Z,-15.10
2023-02-26T06:18:52.329Z,-15.00
2023-02-26T06:21:23.956Z,-15.00
2023-02-26T06:23:54.201Z,-15.00
2023-02-26T06:26:24.275Z,-14.90
2023-02-26T06:28:54.558Z,-14.90
2023-02-26T06:31:24.643Z,-14.90
2023-02-26T06:33:54.784Z,-14.80
2023-02-26T06:36:26.693Z,-14.80
2023-02-26T06:38:56.953Z,-14.70
2023-02-26T06:41:27.094Z,-14.70
2023-02-26T06:43:57.257Z,-14.60
2023-02-26T06:46:27.565Z,-14.60
2023-02-26T06:48:57.993Z,-14.50
2023-02-26T06:51:30.084Z,-14.50
2023-02-26T06:54:00.404Z,-14.40
2023-02-26T06:56:30.495Z,-14.40
2023-02-26T06:59:00.565Z,-14.30
2023-02-26T07:01:32.646Z,-14.30
2023-02-26T07:04:02.770Z,-14.20
2023-02-26T07:06:34.690Z,-14.10
2023-02-26T07:09:04.901Z,-14.00
2023-02-26T07:11:35.161Z,-14.00
2023-02-26T07:14:05.428Z,-13.90
2023-02-26T07:16:35.531Z,-13.90
2023-02-26T07:19:05.706Z,-13.80
2023-02-26T07:21:37.593Z,-13.80
2023-02-26T07:24:08.588Z,-13.70
2023-02-26T07:26:38.738Z,-13.70
2023-02-26T07:29:08.830Z,-13.70
2023-02-26T07:31:39.125Z,-13.70
2023-02-26T07:34:09.289Z,-13.70
2023-02-26T07:36:41.307Z,-13.60
2023-02-26T07:39:11.434Z,-13.60
2023-02-26T07:41:41.474Z,-13.60
2023-02-26T07:44:11.849Z,-13.70
2023-02-26T07:46:41.877Z,-13.70
2023-02-26T07:49:12.111Z,-13.70
2023-02-26T07:51:46.492Z,-13.70
2023-02-26T07:54:16.842Z,-13.70
2023-02-26T07:56:46.984Z,-13.70
2023-02-26T07:59:17.735Z,-13.70
2023-02-26T08:01:47.891Z,-13.70
2023-02-26T08:04:18.289Z,-13.70
2023-02-26T08:06:50.213Z,-13.70
2023-02-26T08:09:20.582Z,-13.70
2023-02-26T08:11:50.947Z,-13.70
2023-02-26T08:14:21.058Z,-13.70
2023-02-26T08:16:51.731Z,-13.70
2023-02-26T08:19:21.829Z,-13.70
2023-02-26T08:21:55.821Z,-13.70
2023-02-26T08:24:26.017Z,-13.70
2023-02-26T08:26:57.176Z,-13.70
2023-02-26T08:29:27.499Z,-13.60
2023-02-26T08:31:57.733Z,-13.70
2023-02-26T08:34:28.275Z,-13.70
2023-02-26T08:37:00.107Z,-13.60
2023-02-26T08:39:33.643Z,-13.60
2023-02-26T08:42:03.718Z,-13.60
2023-02-26T08:44:33.979Z,-13.60
2023-02-26T08:47:04.334Z,-13.60
2023-02-26T08:49:34.474Z,-13.60
2023-02-26T08:52:06.496Z,-13.60
2023-02-26T08:54:36.694Z,-13.60
2023-02-26T08:57:06.800Z,-13.60
2023-02-26T08:59:36.921Z,-13.50
2023-02-26T09:02:07.037Z,-13.50
2023-02-26T09:04:37.174Z,-13.60
2023-02-26T09:07:09.051Z,-13.60
2023-02-26T09:09:39.312Z,-13.60
2023-02-26T09:12:18.754Z,-13.50
2023-02-26T09:14:48.873Z,-13.50
2023-02-26T09:17:18.903Z,-13.50
2023-02-26T09:19:49.080Z,-13.50
2023-02-26T09:22:20.794Z,-13.50
2023-02-26T09:24:50.881Z,-13.50
2023-02-26T09:27:21.069Z,-13.50
2023-02-26T09:29:51.206Z,-13.40
2023-02-26T09:32:21.425Z,-13.40
2023-02-26T09:34:51.860Z,-13.40
2023-02-26T09:37:23.697Z,-13.40
2023-02-26T09:39:54.951Z,-13.40
2023-02-26T09:42:37.342Z,-13.40
2023-02-26T09:45:14.548Z,-13.30
2023-02-26T09:47:52.364Z,-13.30
2023-02-26T09:50:26.441Z,-13.30
2023-02-26T09:53:05.241Z,-13.20
2023-02-26T09:55:39.985Z,-13.20
2023-02-26T09:58:19.247Z,-13.20
2023-02-26T10:00:56.894Z,-13.20
2023-02-26T10:03:32.779Z,-13.20
2023-02-26T10:06:24.103Z,-13.10
2023-02-26T10:09:10.035Z,-13.10
2023-02-26T10:11:49.458Z,-13.10
2023-02-26T10:14:23.142Z,-13.00
2023-02-26T10:16:58.635Z,-13.00
2023-02-26T10:19:33.166Z,-13.00
2023-02-26T10:22:12.543Z,-12.90
2023-02-26T10:24:48.417Z,-12.90
2023-02-26T10:27:23.077Z,-12.90
2023-02-26T10:30:00.866Z,-12.90
2023-02-26T10:32:39.390Z,-12.90
2023-02-26T10:35:13.943Z,-12.90
2023-02-26T10:37:51.650Z,-13.00
2023-02-26T10:40:30.587Z,-12.90
2023-02-26T10:43:03.086Z,-12.90
2023-02-26T10:45:47.637Z,-12.90
2023-02-26T10:48:39.270Z,-12.90
2023-02-26T10:51:15.884Z,-12.90
2023-02-26T10:53:49.770Z,-12.90
2023-02-26T10:56:27.252Z,-12.90
2023-02-26T10:58:57.410Z,-12.90
2023-02-26T11:01:31.463Z,-12.90
2023-02-26T11:04:04.107Z,-12.90
2023-02-26T11:06:36.834Z,-12.90
2023-02-26T11:09:16.156Z,-12.90
2023-02-26T11:11:50.751Z,-12.90
2023-02-26T11:14:21.892Z,-12.80
2023-02-26T11:16:54.973Z,-12.80
2023-02-26T11:19:31.098Z,-12.80
2023-02-26T11:22:02.867Z,-12.80
2023-02-26T11:24:35.425Z,-12.70
2023-02-26T11:27:10.435Z,-12.70
2023-02-26T11:29:42.389Z,-12.60
2023-02-26T11:32:20.512Z,-12.60
2023-02-26T11:34:52.112Z,-12.50
2023-02-26T11:37:24.197Z,-12.50
2023-02-26T11:39:58.660Z,-12.50
2023-02-26T11:42:34.149Z,-12.40
2023-02-26T11:45:04.424Z,-12.40
2023-02-26T11:47:35.949Z,-12.30
2023-02-26T11:50:13.277Z,-12.30
2023-02-26T11:52:45.903Z,-12.20
2023-02-26T11:55:22.586Z,-12.30
2023-02-26T11:57:57.231Z,-12.20
2023-02-26T12:00:31.716Z,-12.20
2023-02-26T12:03:05.137Z,-12.00
2023-02-26T12:05:35.341Z,-12.00
2023-02-26T12:08:08.418Z,-12.00
2023-02-26T12:10:45.955Z,-11.90
2023-02-26T12:13:27.082Z,-11.90
2023-02-26T12:16:01.032Z,-11.80
2023-02-26T12:18:43.991Z,-11.80
2023-02-26T12:21:34.026Z,-11.70
2023-02-26T12:24:28.285Z,-11.60
2023-02-26T12:27:06.029Z,-11.50
2023-02-26T12:30:03.994Z,-11.40
2023-02-26T12:33:02.272Z,-11.30
2023-02-26T12:35:53.225Z,-11.20
2023-02-26T12:38:29.031Z,-11.00
2023-02-26T12:41:41.213Z,-10.90
2023-02-26T12:44:25.249Z,-10.90
2023-02-26T12:47:15.803Z,-10.80
2023-02-26T12:50:08.800Z,-10.60
2023-02-26T12:52:55.865Z,-10.40
2023-02-26T12:55:33.452Z,-10.10
2023-02-26T12:58:41.541Z,-9.90
2023-02-26T13:01:56.013Z,-9.70
2023-02-26T13:05:01.584Z,-9.60
2023-02-26T13:07:50.493Z,-9.60
2023-02-26T13:10:29.910Z,-9.40
2023-02-26T13:13:18.902Z,-9.40
2023-02-26T13:16:09.746Z,-9.30
2023-02-26T13:18:49.281Z,-9.20
2023-02-26T13:21:29.813Z,-9.10
2023-02-26T13:24:05.869Z,-9.10
2023-02-26T13:26:37.196Z,-8.80
2023-02-26T13:29:12.888Z,-8.70
2023-02-26T13:31:48.115Z,-8.40
2023-02-26T13:34:23.004Z,-8.30
2023-02-26T13:36:55.228Z,-8.10
2023-02-26T13:39:39.152Z,-8.10
2023-02-26T13:42:21.665Z,-7.90
2023-02-26T13:45:01.285Z,-8.00
2023-02-26T13:47:47.517Z,-8.10
2023-02-26T13:50:43.816Z,-8.00
2023-02-26T13:53:50.524Z,-7.90
2023-02-26T13:56:25.490Z,-7.80
2023-02-26T13:58:57.641Z,-7.40
2023-02-26T14:01:31.436Z,-7.20
2023-02-26T14:04:25.541Z,-7.10
2023-02-26T14:06:57.102Z,-7.40
2023-02-26T14:09:47.617Z,-7.30
2023-02-26T14:12:37.136Z,-7.60
2023-02-26T14:15:31.578Z,-7.80
2023-02-26T14:18:07.907Z,-7.60
2023-02-26T14:20:38.361Z,-7.60
2023-02-26T14:23:34.373Z,-7.50
2023-02-26T14:26:16.548Z,-7.70
2023-02-26T14:28:58.313Z,-7.70
2023-02-26T14:31:29.329Z,-7.80
2023-02-26T14:34:12.052Z,-7.80
2023-02-26T14:36:47.725Z,-7.70
2023-02-26T14:39:28.028Z,-7.60
2023-02-26T14:42:04.690Z,-7.30
2023-02-26T14:44:40.992Z,-7.10
2023-02-26T14:47:12.126Z,-7.00
2023-02-26T14:49:44.029Z,-7.20
2023-02-26T14:52:38.915Z,-7.10
2023-02-26T14:55:32.538Z,-7.30
2023-02-26T14:58:27.982Z,-7.30
2023-02-26T15:01:20.922Z,-7.20
2023-02-26T15:04:11.396Z,-6.90
2023-02-26T15:07:03.686Z,-7.20
2023-02-26T15:09:48.154Z,-7.10
2023-02-26T15:12:36.883Z,-6.60
2023-02-26T15:15:23.199Z,-6.60
2023-02-26T15:18:06.785Z,-6.30
2023-02-26T15:20:45.540Z,-6.70
2023-02-26T15:23:40.509Z,-6.70
2023-02-26T15:26:20.393Z,-6.80
2023-02-26T15:29:07.173Z,-7.00
2023-02-26T15:31:43.431Z,-6.70
2023-02-26T15:34:14.984Z,-6.70
2023-02-26T15:36:48.632Z,-6.30
2023-02-26T15:39:20.559Z,-6.30
2023-02-26T15:41:52.859Z,-6.20
2023-02-26T15:44:25.836Z,-6.20
2023-02-26T15:47:00.895Z,-6.10
2023-02-26T15:49:35.577Z,-5.60
2023-02-26T15:52:07.837Z,-5.80
2023-02-26T15:54:42.957Z,-5.80
2023-02-26T15:57:13.861Z,-5.90
2023-02-26T15:59:47.723Z,-6.00
2023-02-26T16:02:22.717Z,-6.10
2023-02-26T16:04:53.843Z,-6.00
2023-02-26T16:07:24.276Z,-5.50
2023-02-26T16:09:56.595Z,-5.00
2023-02-26T16:12:37.014Z,-4.10
2023-02-26T16:15:13.310Z,-3.70
2023-02-26T16:17:47.378Z,-2.90
2023-02-26T16:20:20.085Z,-2.90
2023-02-26T16:22:52.390Z,-1.90
2023-02-26T16:25:27.104Z,-1.90
2023-02-26T16:28:02.500Z,-2.20
2023-02-26T16:30:36.579Z,-2.10
2023-02-26T16:33:12.453Z,-2.40
2023-02-26T16:35:46.226Z,-2.30
2023-02-26T16:38:22.126Z,-1.50
2023-02-26T16:41:00.340Z,-1.50
2023-02-26T16:43:53.642Z,-1.40
2023-02-26T16:46:31.106Z,-1.70
2023-02-26T16:49:05.847Z,-1.50
2023-02-26T16:51:39.585Z,-1.20
2023-02-26T16:54:17.213Z,-1.30
2023-02-26T16:56:50.123Z,-1.30
2023-02-26T16:59:22.846Z,-1.00
2023-02-26T17:01:56.751Z,-1.00
2023-02-26T17:04:30.887Z,-1.40
2023-02-26T17:07:01.647Z,-1.60
2023-02-26T17:09:39.286Z,-1.50
2023-02-26T17:12:16.355Z,-1.40
2023-02-26T17:14:50.524Z,-1.50
2023-02-26T17:17:21.202Z,-1.50
2023-02-26T17:19:54.578Z,-1.50
2023-02-26T17:22:41.896Z,-1.50
2023-02-26T17:25:17.044Z,-1.30
2023-02-26T17:27:48.306Z,-1.30
2023-02-26T17:32:45.073Z,-0.80
2023-02-26T17:35:16.839Z,-0.60
2023-02-26T17:37:48.333Z,-0.80
2023-02-26T17:40:23.708Z,-0.80
2023-02-26T17:42:54.143Z,-0.70
2023-02-26T17:45:24.298Z,-0.90
2023-02-26T17:47:55.962Z,-1.20
2023-02-26T17:50:38.672Z,-1.90
2023-02-26T17:53:10.147Z,-2.10
2023-02-26T17:55:40.892Z,-2.50
2023-02-26T17:58:18.441Z,-1.90
2023-02-26T18:00:50.748Z,-1.60
2023-02-26T18:03:22.616Z,-1.70
2023-02-26T18:05:55.286Z,-0.80
2023-02-26T18:08:26.733Z,-0.40
2023-02-26T18:10:58.000Z,0.60
2023-02-26T18:13:29.298Z,0.90
2023-02-26T18:16:01.612Z,0.30
2023-02-26T18:18:34.030Z,0.10
2023-02-26T18:21:06.234Z,0.20
2023-02-26T18:23:36.488Z,0.70
2023-02-26T18:26:06.993Z,0.90
2023-02-26T18:28:37.128Z,1.50
2023-02-26T18:31:10.628Z,2.30
2023-02-26T18:33:44.644Z,2.30
2023-02-26T18:36:19.589Z,2.20
2023-02-26T18:38:49.808Z,2.20
2023-02-26T18:41:19.876Z,1.80
2023-02-26T18:43:49.935Z,1.50
2023-02-26T18:46:20.293Z,0.60
2023-02-26T18:48:53.838Z,1.00
2023-02-26T18:51:23.977Z,1.10
2023-02-26T18:53:54.942Z,0.80
2023-02-26T18:56:25.032Z,0.00
2023-02-26T18:58:55.250Z,-0.50
2023-02-26T19:01:25.469Z,0.10
2023-02-26T19:03:57.089Z,0.30
2023-02-26T19:06:27.561Z,-0.40
2023-02-26T19:08:57.588Z,-1.00
2023-02-26T19:11:28.009Z,-1.10
2023-02-26T19:13:58.169Z,-0.50
2023-02-26T19:16:31.374Z,-0.40
2023-02-26T19:19:05.800Z,-1.50
2023-02-26T19:21:37.146Z,-1.30
2023-02-26T19:24:08.046Z,-1.10
2023-02-26T19:26:38.882Z,-2.10
2023-02-26T19:29:10.313Z,-1.90
2023-02-26T19:31:40.859Z,-1.80
2023-02-26T19:34:12.972Z,-1.60
2023-02-26T19:36:48.651Z,-1.20
2023-02-26T19:39:19.651Z,-1.60
2023-02-26T19:41:51.123Z,-1.30
2023-02-26T19:44:21.230Z,-1.50
2023-02-26T19:46:52.002Z,-2.00
2023-02-26T19:49:23.718Z,-2.70
2023-02-26T19:51:54.084Z,-2.70
2023-02-26T19:54:24.423Z,-2.80
2023-02-26T19:56:54.681Z,-3.20
2023-02-26T19:59:25.410Z,-3.60
2023-02-26T20:01:55.731Z,-3.40
2023-02-26T20:04:27.422Z,-3.10
2023-02-26T20:06:57.530Z,-3.00
2023-02-26T20:09:28.569Z,-2.90
2023-02-26T20:11:58.729Z,-2.40
2023-02-26T20:14:28.982Z,-2.50
2023-02-26T20:16:59.089Z,-2.80
2023-02-26T20:19:30.768Z,-2.50
2023-02-26T20:22:01.062Z,-2.00
2023-02-26T20:24:33.526Z,-1.70
2023-02-26T20:27:03.716Z,-1.70
2023-02-26T20:29:33.941Z,-1.50
2023-02-26T20:32:04.459Z,-1.60
2023-02-26T20:34:36.192Z,-1.70
2023-02-26T20:37:06.572Z,-1.70
2023-02-26T20:39:36.804Z,-1.80
2023-02-26T20:42:07.122Z,-1.80
2023-02-26T20:44:37.207Z,-1.80
2023-02-26T20:47:07.380Z,-1.80
2023-02-26T20:49:39.028Z,-1.90
2023-02-26T20:52:09.639Z,-1.80
2023-02-26T20:54:40.312Z,-1.80
2023-02-26T20:57:10.513Z,-1.80
2023-02-26T20:59:41.349Z,-1.70
2023-02-26T21:02:14.555Z,-1.80
2023-02-26T21:04:46.861Z,-1.70
2023-02-26T21:07:22.483Z,-1.70
2023-02-26T21:09:54.524Z,-1.80
2023-02-26T21:12:24.848Z,-2.30
2023-02-26T21:14:56.818Z,-2.70
2023-02-26T21:17:30.372Z,-3.30
2023-02-26T21:20:03.617Z,-3.60
2023-02-26T21:22:34.003Z,-4.00
2023-02-26T21:25:04.152Z,-4.40
2023-02-26T21:27:34.321Z,-4.70
2023-02-26T21:30:24.335Z,-5.00
2023-02-26T21:32:54.901Z,-5.30
2023-02-26T21:35:26.641Z,-5.50
2023-02-26T21:37:56.864Z,-5.40
2023-02-26T21:40:27.063Z,-5.10
2023-02-26T21:42:57.177Z,-5.00
2023-02-26T21:45:27.205Z,-5.20
2023-02-26T21:47:57.367Z,-5.60
2023-02-26T21:50:29.097Z,-6.00
2023-02-26T21:52:59.228Z,-6.40
2023-02-26T21:55:29.313Z,-6.70
2023-02-26T21:57:59.459Z,-6.90
2023-02-26T22:00:29.887Z,-7.00
2023-02-26T22:03:00.512Z,-7.10
2023-02-26T22:05:32.234Z,-7.20
2023-02-26T22:08:02.344Z,-7.10
2023-02-26T22:10:32.472Z,-6.90
2023-02-26T22:13:02.680Z,-6.70
2023-02-26T22:15:32.733Z,-6.70
2023-02-26T22:18:02.879Z,-6.70
2023-02-26T22:20:34.722Z,-6.80
2023-02-26T22:23:05.270Z,-7.00
2023-02-26T22:25:35.430Z,-7.20
2023-02-26T22:28:05.684Z,-7.50
2023-02-26T22:30:35.940Z,-7.80
2023-02-26T22:33:06.860Z,-8.00
2023-02-26T22:35:38.598Z,-8.30
2023-02-26T22:38:08.973Z,-8.60
2023-02-26T22:40:39.310Z,-8.80
2023-02-26T22:43:09.699Z,-9.10
2023-02-26T22:45:39.794Z,-9.30
2023-02-26T22:48:10.038Z,-9.50
2023-02-26T22:50:41.781Z,-9.50
2023-02-26T22:53:11.900Z,-9.60
2023-02-26T22:55:42.151Z,-9.80
2023-02-26T22:58:12.270Z,-10.00
2023-02-26T23:00:43.284Z,-10.20
2023-02-26T23:03:14.940Z,-10.30
2023-02-26T23:05:46.580Z,-10.40
2023-02-26T23:08:16.714Z,-10.50
2023-02-26T23:10:48.145Z,-10.70
2023-02-26T23:13:18.369Z,-10.80
2023-02-26T23:15:49.457Z,-10.90
2023-02-26T23:18:20.076Z,-10.90
2023-02-26T23:20:52.229Z,-11.00
2023-02-26T23:23:22.356Z,-10.90
2023-02-26T23:25:52.446Z,-10.80
2023-02-26T23:28:25.168Z,-10.70
2023-02-26T23:30:55.701Z,-10.70
2023-02-26T23:33:26.776Z,-10.80
2023-02-26T23:35:58.430Z,-10.90
2023-02-26T23:38:28.903Z,-11.10
2023-02-26T23:40:59.145Z,-11.20
2023-02-26T23:43:29.278Z,-11.30
2023-02-26T23:45:59.393Z,-11.30
2023-02-26T23:48:29.833Z,-11.20
2023-02-26T23:51:01.489Z,-11.30
2023-02-26T23:53:31.675Z,-11.40
2023-02-26T23:56:01.875Z,-11.60
2023-02-26T23:58:32.620Z,-11.60
